createdAt,value
2023-01-02T00:01:30.119Z,1.37
2023-01-02T00:03:58.593Z,1.70
2023-01-02T00:06:26.569Z,1.83
2023-01-02T00:08:54.152Z,1.70
2023-01-02T00:11:21.759Z,1.40
2023-01-02T00:13:50.771Z,1.70
2023-01-02T00:16:18.567Z,1.70
2023-01-02T00:18:46.279Z,1.70
2023-01-02T00:21:13.938Z,1.57
2023-01-02T00:23:41.739Z,1.40
2023-01-02T00:26:09.627Z,1.60
2023-01-02T00:28:38.511Z,1.70
2023-01-02T00:31:09.421Z,1.63
2023-01-02T00:33:37.699Z,1.70
2023-01-02T00:36:07.351Z,1.77
2023-01-02T00:38:38.169Z,1.73
2023-01-02T00:41:07.120Z,2.27
2023-01-02T00:43:34.915Z,1.87
2023-01-02T00:46:06.322Z,1.50
2023-01-02T00:48:40.390Z,1.90
2023-01-02T00:51:08.703Z,1.80
2023-01-02T00:53:36.590Z,2.30
2023-01-02T00:56:04.635Z,2.57
2023-01-02T00:58:32.391Z,1.30
2023-01-02T01:01:00.206Z,1.73
2023-01-02T01:03:28.300Z,1.63
2023-01-02T01:05:57.428Z,1.80
2023-01-02T01:08:25.098Z,1.60
2023-01-02T01:10:52.792Z,1.50
2023-01-02T01:13:20.490Z,1.63
2023-01-02T01:15:48.185Z,2.20
2023-01-02T01:18:15.938Z,1.87
2023-01-02T01:20:43.617Z,1.70
2023-01-02T01:23:12.628Z,1.47
2023-01-02T01:25:40.302Z,1.70
2023-01-02T01:28:07.956Z,1.77
2023-01-02T01:30:35.770Z,2.03
2023-01-02T01:33:03.373Z,1.90
2023-01-02T01:35:31.089Z,1.50
2023-01-02T01:37:58.776Z,1.40
2023-01-02T01:40:28.053Z,1.70
2023-01-02T01:43:00.725Z,2.03
2023-01-02T01:45:28.827Z,2.03
2023-01-02T01:48:01.554Z,1.67
2023-01-02T01:50:33.028Z,2.80
2023-01-02T01:53:03.859Z,2.60
2023-01-02T01:55:37.680Z,3.03
2023-01-02T01:58:08.940Z,3.83
2023-01-02T02:00:37.330Z,4.00
2023-01-02T02:03:09.764Z,3.80
2023-01-02T02:05:38.967Z,2.93
2023-01-02T02:08:14.436Z,4.63
2023-01-02T02:10:44.266Z,3.50
2023-01-02T02:13:12.275Z,3.20
2023-01-02T02:15:48.737Z,3.20
2023-01-02T02:18:31.215Z,3.80
2023-01-02T02:21:08.051Z,3.57
2023-01-02T02:24:07.585Z,3.80
2023-01-02T02:26:54.572Z,3.97
2023-01-02T02:30:03.239Z,3.87
2023-01-02T02:32:43.740Z,3.83
2023-01-02T02:35:20.914Z,3.93
2023-01-02T02:37:53.867Z,3.43
2023-01-02T02:40:33.048Z,3.47
2023-01-02T02:43:07.310Z,3.27
2023-01-02T02:45:47.658Z,3.70
2023-01-02T02:48:22.479Z,4.10
2023-01-02T02:50:57.803Z,2.83
2023-01-02T02:53:30.425Z,2.67
2023-01-02T02:56:02.992Z,1.40
2023-01-02T02:58:34.301Z,1.37
2023-01-02T03:01:05.646Z,1.40
2023-01-02T03:03:33.932Z,1.20
2023-01-02T03:06:14.585Z,1.50
2023-01-02T03:08:45.921Z,1.90
2023-01-02T03:11:15.157Z,1.57
2023-01-02T03:13:55.694Z,1.30
2023-01-02T03:16:30.146Z,1.60
2023-01-02T03:19:07.041Z,1.57
2023-01-02T03:21:37.039Z,1.47
2023-01-02T03:24:08.756Z,1.40
2023-01-02T03:26:39.444Z,1.30
2023-01-02T03:29:11.500Z,1.30
2023-01-02T03:31:43.363Z,1.60
2023-01-02T03:34:14.207Z,1.47
2023-01-02T03:36:46.066Z,1.20
2023-01-02T03:39:16.911Z,1.30
2023-01-02T03:41:51.593Z,1.60
2023-01-02T03:44:23.359Z,1.73
2023-01-02T03:46:56.266Z,1.47
2023-01-02T03:49:30.847Z,1.73
2023-01-02T03:51:58.833Z,1.80
2023-01-02T03:54:27.829Z,1.57
2023-01-02T03:57:01.624Z,1.33
2023-01-02T03:59:37.968Z,1.60
2023-01-02T04:02:13.196Z,1.30
2023-01-02T04:04:50.385Z,1.20
2023-01-02T04:07:23.599Z,1.30
2023-01-02T04:09:52.300Z,1.70
2023-01-02T04:12:24.103Z,1.40
2023-01-02T04:14:56.767Z,1.47
2023-01-02T04:17:29.685Z,1.40
2023-01-02T04:20:02.530Z,1.27
2023-01-02T04:22:33.781Z,1.50
2023-01-02T04:25:09.029Z,1.70
2023-01-02T04:27:41.679Z,1.50
2023-01-02T04:30:09.909Z,1.53
2023-01-02T04:32:42.967Z,1.67
2023-01-02T04:35:12.415Z,1.60
2023-01-02T04:37:42.547Z,1.77
2023-01-02T04:40:14.693Z,1.27
2023-01-02T04:42:42.459Z,1.57
2023-01-02T04:45:10.983Z,1.63
2023-01-02T04:47:40.051Z,1.50
2023-01-02T04:50:09.278Z,1.70
2023-01-02T04:52:38.383Z,1.40
2023-01-02T04:55:08.300Z,1.80
2023-01-02T04:57:36.472Z,1.53
2023-01-02T05:00:05.395Z,1.47
2023-01-02T05:02:35.643Z,1.70
2023-01-02T05:05:05.626Z,1.77
2023-01-02T05:07:35.691Z,1.70
2023-01-02T05:10:03.500Z,1.63
2023-01-02T05:12:34.646Z,1.63
2023-01-02T05:15:02.432Z,1.50
2023-01-02T05:17:30.553Z,2.40
2023-01-02T05:19:58.289Z,1.30
2023-01-02T05:22:44.625Z,1.60
2023-01-02T05:25:12.394Z,1.40
2023-01-02T05:27:41.016Z,2.00
2023-01-02T05:30:10.170Z,1.50
2023-01-02T05:32:37.924Z,1.60
2023-01-02T05:35:06.377Z,1.40
2023-01-02T05:37:36.501Z,1.60
2023-01-02T05:40:04.687Z,1.30
2023-01-02T05:42:32.420Z,2.00
2023-01-02T05:45:00.180Z,1.70
2023-01-02T05:47:27.872Z,1.40
2023-01-02T05:49:55.608Z,1.70
2023-01-02T05:52:23.304Z,1.27
2023-01-02T05:54:52.329Z,1.40
2023-01-02T05:57:20.040Z,1.43
2023-01-02T05:59:50.534Z,1.83
2023-01-02T06:02:18.414Z,2.10
2023-01-02T06:04:46.235Z,1.70
2023-01-02T06:07:13.937Z,1.90
2023-01-02T06:09:41.764Z,1.47
2023-01-02T06:12:10.860Z,1.70
2023-01-02T06:14:38.538Z,1.80
2023-01-02T06:17:06.211Z,1.90
2023-01-02T06:19:33.974Z,2.00
2023-01-02T06:22:01.691Z,1.73
2023-01-02T06:24:29.332Z,1.80
2023-01-02T06:26:56.938Z,2.07
2023-01-02T06:29:25.974Z,1.87
2023-01-02T06:31:53.633Z,1.70
2023-01-02T06:34:21.354Z,1.50
2023-01-02T06:36:49.051Z,1.90
2023-01-02T06:39:16.692Z,2.13
2023-01-02T06:41:44.370Z,1.60
2023-01-02T06:44:14.101Z,1.90
2023-01-02T06:46:43.096Z,2.00
2023-01-02T06:49:10.786Z,1.80
2023-01-02T06:51:38.463Z,1.90
2023-01-02T06:54:06.099Z,1.53
2023-01-02T06:56:33.740Z,2.00
2023-01-02T06:59:01.329Z,1.77
2023-01-02T07:01:29.911Z,1.63
2023-01-02T07:03:58.949Z,1.43
2023-01-02T07:06:27.777Z,1.70
2023-01-02T07:08:55.549Z,1.90
2023-01-02T07:11:24.832Z,1.90
2023-01-02T07:13:54.568Z,1.60
2023-01-02T07:16:24.119Z,1.80
2023-01-02T07:18:53.838Z,2.03
2023-01-02T07:21:23.611Z,1.90
2023-01-02T07:23:51.247Z,1.50
2023-01-02T07:26:19.065Z,1.57
2023-01-02T07:28:47.145Z,1.70
2023-01-02T07:31:17.098Z,2.17
2023-01-02T07:33:45.173Z,1.80
2023-01-02T07:36:15.402Z,1.57
2023-01-02T07:38:44.908Z,1.90
2023-01-02T07:41:15.606Z,1.80
2023-01-02T07:43:44.619Z,1.80
2023-01-02T07:46:13.030Z,2.17
2023-01-02T07:48:40.843Z,1.60
2023-01-02T07:51:09.587Z,1.80
2023-01-02T07:56:17.183Z,2.53
2023-01-02T07:58:44.925Z,2.10
2023-01-02T08:01:14.070Z,1.77
2023-01-02T08:03:42.618Z,2.00
2023-01-02T08:06:11.981Z,1.77
2023-01-02T08:08:40.157Z,1.60
2023-01-02T08:11:08.552Z,1.93
2023-01-02T08:13:38.467Z,2.30
2023-01-02T08:16:07.792Z,2.07
2023-01-02T08:18:35.587Z,1.70
2023-01-02T08:21:03.968Z,1.80
2023-01-02T08:23:32.004Z,1.63
2023-01-02T08:25:59.944Z,2.87
2023-01-02T08:28:29.049Z,1.77
2023-01-02T08:30:58.482Z,2.20
2023-01-02T08:33:26.309Z,1.90
2023-01-02T08:35:54.292Z,1.80
2023-01-02T08:38:21.993Z,2.13
2023-01-02T08:40:49.752Z,1.60
2023-01-02T08:43:17.468Z,1.80
2023-01-02T08:45:45.393Z,1.60
2023-01-02T08:48:20.841Z,1.60
2023-01-02T08:50:49.788Z,1.83
2023-01-02T08:53:17.555Z,2.33
2023-01-02T08:55:45.783Z,1.93
2023-01-02T08:58:13.598Z,2.20
2023-01-02T09:00:41.236Z,2.43
2023-01-02T09:03:09.165Z,2.60
2023-01-02T09:05:38.351Z,2.10
2023-01-02T09:08:06.307Z,2.00
2023-01-02T09:10:33.977Z,2.00
2023-01-02T09:13:01.644Z,2.67
2023-01-02T09:15:29.458Z,2.40
2023-01-02T09:17:57.139Z,3.07
2023-01-02T09:20:24.905Z,2.60
2023-01-02T09:22:54.137Z,2.37
2023-01-02T09:25:24.329Z,2.47
2023-01-02T09:27:52.820Z,2.07
2023-01-02T09:30:21.005Z,2.00
2023-01-02T09:32:49.283Z,1.67
2023-01-02T09:35:17.255Z,1.93
2023-01-02T09:37:45.883Z,2.30
2023-01-02T09:40:15.462Z,2.03
2023-01-02T09:42:44.309Z,1.60
2023-01-02T09:45:13.479Z,1.77
2023-01-02T09:47:44.114Z,2.20
2023-01-02T09:50:16.505Z,2.00
2023-01-02T09:52:46.458Z,1.60
2023-01-02T09:55:20.076Z,1.70
2023-01-02T09:57:54.553Z,2.10
2023-01-02T10:00:24.684Z,2.07
2023-01-02T10:03:07.600Z,1.90
2023-01-02T10:05:54.653Z,1.70
2023-01-02T10:08:32.777Z,2.50
2023-01-02T10:11:17.578Z,1.90
2023-01-02T10:14:18.726Z,2.57
2023-01-02T10:16:45.868Z,1.80
2023-01-02T10:19:17.968Z,1.90
2023-01-02T10:21:48.716Z,2.30
2023-01-02T10:24:21.026Z,1.90
2023-01-02T10:26:54.613Z,2.00
2023-01-02T10:29:29.045Z,2.17
2023-01-02T10:32:01.135Z,2.30
2023-01-02T10:34:38.440Z,1.97
2023-01-02T10:37:13.723Z,1.93
2023-01-02T10:39:43.320Z,1.87
2023-01-02T10:42:14.698Z,1.73
2023-01-02T10:44:44.525Z,2.37
2023-01-02T10:47:20.264Z,2.00
2023-01-02T10:49:48.860Z,1.60
2023-01-02T10:52:22.362Z,2.07
2023-01-02T10:54:59.147Z,2.37
2023-01-02T10:57:39.498Z,2.40
2023-01-02T11:00:28.102Z,2.13
2023-01-02T11:02:57.659Z,2.10
2023-01-02T11:05:27.568Z,2.20
2023-01-02T11:07:55.678Z,2.33
2023-01-02T11:10:27.325Z,2.50
2023-01-02T11:12:56.933Z,2.00
2023-01-02T11:15:26.522Z,2.03
2023-01-02T11:17:54.588Z,2.53
2023-01-02T11:20:28.888Z,2.40
2023-01-02T11:22:59.389Z,2.73
2023-01-02T11:25:30.064Z,2.83
2023-01-02T11:28:01.337Z,2.00
2023-01-02T11:30:37.576Z,2.10
2023-01-02T11:33:20.038Z,2.67
2023-01-02T11:35:50.072Z,2.93
2023-01-02T11:38:30.239Z,2.03
2023-01-02T11:41:01.139Z,2.20
2023-01-02T11:43:48.838Z,2.37
2023-01-02T11:46:24.621Z,2.47
2023-01-02T11:48:55.101Z,1.80
2023-01-02T11:51:23.258Z,3.50
2023-01-02T11:53:54.042Z,2.03
2023-01-02T11:56:28.194Z,2.80
2023-01-02T11:59:02.532Z,3.23
2023-01-02T12:01:38.149Z,4.10
2023-01-02T12:04:06.661Z,2.70
2023-01-02T12:06:49.463Z,2.60
2023-01-02T12:09:27.124Z,3.07
2023-01-02T12:12:10.496Z,3.40
2023-01-02T12:14:54.888Z,3.80
2023-01-02T12:17:35.723Z,2.77
2023-01-02T12:20:41.312Z,3.30
2023-01-02T12:23:47.531Z,3.27
2023-01-02T12:26:19.218Z,4.10
2023-01-02T12:29:12.349Z,3.57
2023-01-02T12:32:06.162Z,1.90
2023-01-02T12:34:54.631Z,2.60
2023-01-02T12:37:34.892Z,2.70
2023-01-02T12:40:30.122Z,3.43
2023-01-02T12:43:17.656Z,3.13
2023-01-02T12:45:54.269Z,2.57
2023-01-02T12:48:47.011Z,3.30
2023-01-02T12:51:20.556Z,2.50
2023-01-02T12:54:19.240Z,2.50
2023-01-02T12:56:56.304Z,2.70
2023-01-02T12:59:50.768Z,2.93
2023-01-02T13:02:32.019Z,2.23
2023-01-02T13:05:06.716Z,1.97
2023-01-02T13:07:40.966Z,3.13
2023-01-02T13:10:24.511Z,2.50
2023-01-02T13:12:53.584Z,2.27
2023-01-02T13:15:25.517Z,2.93
2023-01-02T13:18:05.515Z,3.10
2023-01-02T13:20:46.875Z,2.37
2023-01-02T13:23:31.385Z,3.50
2023-01-02T13:26:02.258Z,2.33
2023-01-02T13:28:30.045Z,3.37
2023-01-02T13:31:35.186Z,2.80
2023-01-02T13:33:50.757Z,2.57
2023-01-02T13:36:26.620Z,3.23
2023-01-02T13:38:57.568Z,2.57
2023-01-02T13:41:27.254Z,2.93
2023-01-02T13:43:57.852Z,2.73
2023-01-02T13:49:21.100Z,2.70
2023-01-02T13:51:50.228Z,2.97
2023-01-02T13:54:21.139Z,3.00
2023-01-02T13:57:19.138Z,2.23
2023-01-02T13:59:59.193Z,2.17
2023-01-02T14:02:27.132Z,2.50
2023-01-02T14:04:55.460Z,2.37
2023-01-02T14:07:44.629Z,2.43
2023-01-02T14:10:40.597Z,2.60
2023-01-02T14:13:23.968Z,2.80
2023-01-02T14:16:18.686Z,2.80
2023-01-02T14:18:46.982Z,2.67
2023-01-02T14:21:21.979Z,2.90
2023-01-02T14:24:16.051Z,2.23
2023-01-02T14:26:40.585Z,2.43
2023-01-02T14:29:16.856Z,3.07
2023-01-02T14:31:45.246Z,2.60
2023-01-02T14:34:22.565Z,2.70
2023-01-02T14:36:52.325Z,3.70
2023-01-02T14:39:25.287Z,2.60
2023-01-02T14:42:31.018Z,2.50
2023-01-02T14:45:04.208Z,2.67
2023-01-02T14:47:38.309Z,2.23
2023-01-02T14:50:12.783Z,2.67
2023-01-02T14:52:44.346Z,2.60
2023-01-02T14:55:17.009Z,2.30
2023-01-02T14:57:48.853Z,2.17
2023-01-02T15:00:30.758Z,3.07
2023-01-02T15:03:15.329Z,2.30
2023-01-02T15:05:48.711Z,2.60
2023-01-02T15:08:20.184Z,2.80
2023-01-02T15:11:20.178Z,3.33
2023-01-02T15:14:05.331Z,2.60
2023-01-02T15:16:42.242Z,2.50
2023-01-02T15:19:18.301Z,2.80
2023-01-02T15:21:46.682Z,2.10
2023-01-02T15:24:23.203Z,2.63
2023-01-02T15:26:52.931Z,2.43
2023-01-02T15:29:26.171Z,2.57
2023-01-02T15:31:55.984Z,3.80
2023-01-02T15:34:31.193Z,3.77
2023-01-02T15:37:02.119Z,2.47
2023-01-02T15:39:37.858Z,2.57
2023-01-02T15:42:29.077Z,3.47
2023-01-02T15:45:11.832Z,2.20
2023-01-02T15:47:42.265Z,2.13
2023-01-02T15:50:17.625Z,2.30
2023-01-02T15:52:48.094Z,2.90
2023-01-02T15:55:17.703Z,2.93
2023-01-02T15:57:53.360Z,2.93
2023-01-02T16:00:36.359Z,2.70
2023-01-02T16:03:04.773Z,2.07
2023-01-02T16:05:46.826Z,2.57
2023-01-02T16:08:20.740Z,2.60
2023-01-02T16:10:51.520Z,2.77
2023-01-02T16:13:41.614Z,3.20
2023-01-02T16:16:16.646Z,3.13
2023-01-02T16:18:48.089Z,2.07
2023-01-02T16:21:18.177Z,2.37
2023-01-02T16:23:50.985Z,2.60
2023-01-02T16:26:20.718Z,2.33
2023-01-02T16:28:51.679Z,2.87
2023-01-02T16:31:21.600Z,2.73
2023-01-02T16:33:49.870Z,3.07
2023-01-02T16:36:22.343Z,6.43
2023-01-02T16:38:53.974Z,3.03
2023-01-02T16:42:18.574Z,2.80
2023-01-02T16:44:55.114Z,2.63
2023-01-02T16:47:23.552Z,2.10
2023-01-02T16:49:51.319Z,1.80
2023-01-02T16:52:19.171Z,2.10
2023-01-02T16:54:52.199Z,3.03
2023-01-02T16:57:23.465Z,2.37
2023-01-02T16:59:52.511Z,2.43
2023-01-02T17:02:20.331Z,2.37
2023-01-02T17:04:48.627Z,1.57
2023-01-02T17:07:21.977Z,2.60
2023-01-02T17:09:50.295Z,2.17
2023-01-02T17:12:18.181Z,2.83
2023-01-02T17:14:46.169Z,3.53
2023-01-02T17:17:15.227Z,2.77
2023-01-02T17:19:42.957Z,2.60
2023-01-02T17:22:10.659Z,2.40
2023-01-02T17:24:38.370Z,2.30
2023-01-02T17:27:06.114Z,1.83
2023-01-02T17:29:33.841Z,2.53
2023-01-02T17:32:01.652Z,2.67
2023-01-02T17:34:32.369Z,2.67
2023-01-02T17:37:00.211Z,3.07
2023-01-02T17:39:28.281Z,2.17
2023-01-02T17:41:56.325Z,2.30
2023-01-02T17:44:24.014Z,3.77
2023-01-02T17:47:23.332Z,2.50
2023-01-02T17:49:41.865Z,2.20
2023-01-02T17:52:09.716Z,2.70
2023-01-02T17:54:37.329Z,3.70
2023-01-02T17:57:05.151Z,3.23
2023-01-02T17:59:33.977Z,3.50
2023-01-02T18:02:02.434Z,3.37
2023-01-02T18:04:30.623Z,3.53
2023-01-02T18:07:01.366Z,3.60
2023-01-02T18:09:29.450Z,3.77
2023-01-02T18:11:57.140Z,3.03
2023-01-02T18:14:28.280Z,2.67
2023-01-02T18:16:57.347Z,3.40
2023-01-02T18:19:27.266Z,3.80
2023-01-02T18:21:55.301Z,4.00
2023-01-02T18:24:30.121Z,3.70
2023-01-02T18:27:02.121Z,4.50
2023-01-02T18:29:29.803Z,2.90
2023-01-02T18:31:58.066Z,4.80
2023-01-02T18:34:47.794Z,6.57
2023-01-02T18:37:20.758Z,3.40
2023-01-02T18:39:50.779Z,3.03
2023-01-02T18:42:20.605Z,1.90
2023-01-02T18:44:50.451Z,1.53
2023-01-02T18:47:26.205Z,1.50
2023-01-02T18:49:55.928Z,1.43
2023-01-02T18:52:27.142Z,1.87
2023-01-02T18:55:02.716Z,2.20
2023-01-02T18:57:35.234Z,1.87
2023-01-02T19:00:18.611Z,1.40
2023-01-02T19:02:55.636Z,1.20
2023-01-02T19:05:26.980Z,1.00
2023-01-02T19:08:03.473Z,1.27
2023-01-02T19:10:38.863Z,1.10
2023-01-02T19:13:12.107Z,1.70
2023-01-02T19:15:43.665Z,1.53
2023-01-02T19:18:37.863Z,1.77
2023-01-02T19:21:17.714Z,1.80
2023-01-02T19:23:48.495Z,0.97
2023-01-02T19:26:26.778Z,1.13
2023-01-02T19:29:00.786Z,1.07
2023-01-02T19:31:35.404Z,0.90
2023-01-02T19:34:03.171Z,0.60
2023-01-02T19:36:39.796Z,0.70
2023-01-02T19:39:25.514Z,0.53
2023-01-02T19:42:12.381Z,0.70
2023-01-02T19:44:40.057Z,2.50
2023-01-02T19:47:07.775Z,1.50
2023-01-02T19:49:35.423Z,7.70
2023-01-02T19:52:03.082Z,8.80
2023-01-02T19:54:30.900Z,2.40
2023-01-02T19:57:00.124Z,1.20
2023-01-02T19:59:27.919Z,0.80
2023-01-02T20:01:55.722Z,1.00
2023-01-02T20:04:23.731Z,1.50
2023-01-02T20:06:51.534Z,1.30
2023-01-02T20:09:24.316Z,1.50
2023-01-02T20:12:10.264Z,0.90
2023-01-02T20:14:40.184Z,0.93
2023-01-02T20:17:09.020Z,0.80
2023-01-02T20:19:37.457Z,1.03
2023-01-02T20:22:05.523Z,1.83
2023-01-02T20:24:33.719Z,1.30
2023-01-02T20:27:02.661Z,3.17
2023-01-02T20:29:31.168Z,1.00
2023-01-02T20:32:01.004Z,0.80
2023-01-02T20:34:28.804Z,0.80
2023-01-02T20:36:56.522Z,0.77
2023-01-02T20:39:24.475Z,1.10
2023-01-02T20:41:52.700Z,0.90
2023-01-02T20:44:20.379Z,1.33
2023-01-02T20:46:48.044Z,1.10
2023-01-02T20:49:17.461Z,0.90
2023-01-02T20:51:45.226Z,0.90
2023-01-02T20:54:12.906Z,0.87
2023-01-02T20:56:40.597Z,0.80
2023-01-02T20:59:08.295Z,1.23
2023-01-02T21:01:36.112Z,0.70
2023-01-02T21:04:03.902Z,1.43
2023-01-02T21:06:33.034Z,1.40
2023-01-02T21:09:01.756Z,1.33
2023-01-02T21:11:29.528Z,1.93
2023-01-02T21:13:57.679Z,1.90
2023-01-02T21:16:26.182Z,1.97
2023-01-02T21:18:54.052Z,1.57
2023-01-02T21:21:23.437Z,1.47
2023-01-02T21:23:52.865Z,2.17
2023-01-02T21:26:21.888Z,1.70
2023-01-02T21:28:50.889Z,1.83
2023-01-02T21:31:20.473Z,1.53
2023-01-02T21:33:48.913Z,1.90
2023-01-02T21:36:17.180Z,1.57
2023-01-02T21:38:45.900Z,1.23
2023-01-02T21:41:32.879Z,1.40
2023-01-02T21:44:00.548Z,1.17
2023-01-02T21:46:28.303Z,0.90
2023-01-02T21:48:56.630Z,0.93
2023-01-02T21:51:27.646Z,0.90
2023-01-02T21:53:58.483Z,1.20
2023-01-02T21:56:27.651Z,1.00
2023-01-02T21:58:55.979Z,0.90
2023-01-02T22:01:23.764Z,0.70
2023-01-02T22:03:51.541Z,1.20
2023-01-02T22:06:19.259Z,0.83
2023-01-02T22:08:46.959Z,0.80
2023-01-02T22:11:31.410Z,1.10
2023-01-02T22:14:00.414Z,1.10
2023-01-02T22:16:28.143Z,1.03
2023-01-02T22:18:55.857Z,0.97
2023-01-02T22:21:23.531Z,1.20
2023-01-02T22:23:51.243Z,0.88
2023-01-02T22:26:19.235Z,1.00
2023-01-02T22:28:46.892Z,1.00
2023-01-02T22:31:16.606Z,1.20
2023-01-02T22:33:44.535Z,0.90
2023-01-02T22:36:12.307Z,0.85
2023-01-02T22:39:02.341Z,0.87
2023-01-02T22:41:30.921Z,0.73
2023-01-02T22:43:59.872Z,0.63
2023-01-02T22:46:32.556Z,0.80
2023-01-02T22:49:00.362Z,0.80
2023-01-02T22:51:57.849Z,1.00
2023-01-02T22:54:20.790Z,0.77
2023-01-02T22:56:48.445Z,0.80
2023-01-02T22:59:16.118Z,1.17
2023-01-02T23:01:47.817Z,1.40
2023-01-02T23:04:19.054Z,0.93
2023-01-02T23:07:22.389Z,1.13
2023-01-02T23:09:34.931Z,0.75
2023-01-02T23:12:02.556Z,1.13
2023-01-02T23:14:30.264Z,0.93
2023-01-02T23:17:16.828Z,1.52
2023-01-02T23:19:44.506Z,0.77
2023-01-02T23:22:12.202Z,0.70
2023-01-02T23:24:40.450Z,1.00
2023-01-02T23:27:10.290Z,0.98
2023-01-02T23:29:38.752Z,0.90
2023-01-02T23:32:10.294Z,1.53
2023-01-02T23:34:38.274Z,1.40
2023-01-02T23:37:06.203Z,1.30
2023-01-02T23:39:35.207Z,1.30
2023-01-02T23:42:03.034Z,1.50
2023-01-02T23:44:30.799Z,1.42
2023-01-02T23:47:00.800Z,1.50
2023-01-02T23:49:31.908Z,0.93
2023-01-02T23:51:59.569Z,0.75
2023-01-02T23:54:27.404Z,0.70
2023-01-02T23:56:55.062Z,1.20
2023-01-02T23:59:25.205Z,0.60
